createdAt,value
2023-07-16T00:02:39.231Z,19.89
2023-07-16T00:08:01.125Z,19.91
2023-07-16T00:13:22.948Z,19.86
2023-07-16T00:18:47.934Z,19.76
2023-07-16T00:24:09.696Z,19.77
2023-07-16T00:29:31.550Z,19.84
2023-07-16T00:34:53.424Z,19.94
2023-07-16T00:40:15.257Z,19.98
2023-07-16T00:45:38.129Z,20.04
2023-07-16T00:51:01.570Z,19.97
2023-07-16T00:56:23.612Z,20.12
2023-07-16T01:01:45.612Z,19.95
2023-07-16T01:07:09.820Z,19.86
2023-07-16T01:12:33.377Z,19.65
2023-07-16T01:17:55.339Z,19.55
2023-07-16T01:23:30.862Z,19.49
2023-07-16T01:29:30.287Z,19.62
2023-07-16T01:34:54.099Z,19.74
2023-07-16T01:40:16.087Z,19.70
2023-07-16T01:45:37.971Z,19.67
2023-07-16T01:50:59.975Z,19.73
2023-07-16T01:56:21.873Z,19.66
2023-07-16T02:01:43.767Z,19.69
2023-07-16T02:07:05.798Z,19.49
2023-07-16T02:12:27.662Z,19.19
2023-07-16T02:17:49.459Z,19.24
2023-07-16T02:23:11.381Z,19.31
2023-07-16T02:28:33.260Z,19.38
2023-07-16T02:33:55.097Z,19.33
2023-07-16T02:39:16.895Z,19.14
2023-07-16T02:44:42.915Z,19.12
2023-07-16T02:50:05.220Z,18.99
2023-07-16T02:55:27.024Z,18.94
2023-07-16T03:00:48.936Z,18.95
2023-07-16T03:06:10.888Z,18.82
2023-07-16T03:11:32.752Z,18.69
2023-07-16T03:16:54.618Z,18.65
2023-07-16T03:22:16.577Z,18.59
2023-07-16T03:27:38.442Z,18.44
2023-07-16T03:33:00.260Z,18.36
2023-07-16T03:38:22.040Z,18.16
2023-07-16T03:43:43.869Z,18.17
2023-07-16T03:49:10.107Z,18.20
2023-07-16T03:54:32.194Z,18.25
2023-07-16T03:59:53.972Z,18.16
2023-07-16T04:05:15.816Z,18.22
2023-07-16T04:10:37.662Z,18.18
2023-07-16T04:15:59.910Z,18.13
2023-07-16T04:21:22.208Z,18.11
2023-07-16T04:26:44.152Z,18.18
2023-07-16T04:32:06.346Z,18.30
2023-07-16T04:37:28.232Z,18.44
2023-07-16T04:42:50.131Z,18.54
2023-07-16T04:48:11.967Z,18.55
2023-07-16T04:53:33.754Z,18.48
2023-07-16T04:58:55.550Z,18.50
2023-07-16T05:04:17.469Z,18.42
2023-07-16T05:09:39.327Z,18.52
2023-07-16T05:15:01.173Z,18.57
2023-07-16T05:20:22.990Z,18.57
2023-07-16T05:25:49.408Z,18.68
2023-07-16T05:31:11.508Z,18.79
2023-07-16T05:36:33.472Z,18.80
2023-07-16T05:41:55.410Z,18.89
2023-07-16T05:47:17.550Z,19.02
2023-07-16T05:52:39.512Z,19.27
2023-07-16T05:58:01.568Z,19.29
2023-07-16T06:03:23.485Z,19.33
2023-07-16T06:08:45.402Z,19.51
2023-07-16T06:14:07.242Z,19.47
2023-07-16T06:19:29.436Z,19.22
2023-07-16T06:24:51.274Z,19.17
2023-07-16T06:30:13.140Z,19.16
2023-07-16T06:35:35.180Z,19.25
2023-07-16T06:40:57.052Z,19.44
2023-07-16T06:46:19.137Z,19.74
2023-07-16T06:51:41.302Z,20.09
2023-07-16T06:57:03.246Z,20.11
2023-07-16T07:02:25.165Z,20.11
2023-07-16T07:07:47.077Z,20.23
2023-07-16T07:13:08.925Z,20.21
2023-07-16T07:18:30.841Z,20.36
2023-07-16T07:23:52.705Z,20.64
2023-07-16T07:29:14.745Z,20.93
2023-07-16T07:34:36.649Z,21.06
2023-07-16T07:40:00.270Z,21.56
2023-07-16T07:45:22.198Z,21.53
2023-07-16T07:50:44.046Z,21.51
2023-07-16T07:56:05.941Z,21.76
2023-07-16T08:01:28.151Z,21.57
2023-07-16T08:06:51.030Z,21.54
2023-07-16T08:12:15.669Z,21.60
2023-07-16T08:17:37.824Z,21.80
2023-07-16T08:22:59.715Z,22.19
2023-07-16T08:28:21.607Z,22.52
2023-07-16T08:33:43.441Z,22.58
2023-07-16T08:39:05.278Z,22.47
2023-07-16T08:44:27.737Z,22.69
2023-07-16T08:49:59.429Z,23.41
2023-07-16T08:55:21.509Z,23.84
2023-07-16T09:00:47.083Z,23.80
2023-07-16T09:06:08.999Z,23.38
2023-07-16T09:11:30.825Z,23.35
2023-07-16T09:16:53.827Z,23.17
2023-07-16T09:22:18.183Z,22.88
2023-07-16T09:27:40.116Z,23.51
2023-07-16T09:33:11.995Z,24.31
2023-07-16T09:38:34.327Z,25.07
2023-07-16T09:43:56.228Z,25.08
2023-07-16T09:49:19.261Z,25.05
2023-07-16T09:54:42.210Z,25.40
2023-07-16T10:00:07.980Z,24.78
2023-07-16T10:05:30.125Z,25.43
2023-07-16T10:10:57.917Z,25.83
2023-07-16T10:16:24.944Z,26.04
2023-07-16T10:21:46.848Z,26.64
2023-07-16T10:27:08.765Z,26.44
2023-07-16T10:32:32.109Z,27.07
2023-07-16T10:37:55.432Z,26.50
2023-07-16T10:43:17.309Z,26.35
2023-07-16T10:48:39.295Z,26.27
2023-07-16T10:54:01.084Z,26.58
2023-07-16T10:59:23.086Z,26.82
2023-07-16T11:04:46.854Z,27.42
2023-07-16T11:10:09.341Z,26.92
2023-07-16T11:15:33.684Z,27.66
2023-07-16T11:20:55.682Z,28.05
2023-07-16T11:26:17.782Z,27.26
2023-07-16T11:31:42.524Z,28.02
2023-07-16T11:37:13.331Z,25.94
2023-07-16T11:42:35.129Z,25.42
2023-07-16T11:47:57.051Z,26.17
2023-07-16T11:53:19.028Z,26.88
2023-07-16T11:58:40.913Z,27.27
2023-07-16T12:04:02.843Z,27.26
2023-07-16T12:09:24.836Z,28.23
2023-07-16T12:14:46.652Z,28.63
2023-07-16T12:20:08.693Z,30.02
2023-07-16T12:25:30.645Z,29.99
2023-07-16T12:30:52.512Z,29.84
2023-07-16T12:36:16.061Z,31.71
2023-07-16T12:41:38.172Z,32.67
2023-07-16T12:46:59.972Z,31.61
2023-07-16T12:52:21.889Z,31.61
2023-07-16T12:57:43.715Z,33.34
2023-07-16T13:03:06.521Z,33.91
2023-07-16T13:08:28.375Z,34.34
2023-07-16T13:13:50.200Z,34.79
2023-07-16T13:19:12.146Z,35.15
2023-07-16T13:24:33.944Z,35.93
2023-07-16T13:29:55.849Z,33.37
2023-07-16T13:35:17.830Z,31.72
2023-07-16T13:40:39.680Z,30.88
2023-07-16T13:46:01.496Z,29.16
2023-07-16T13:51:23.408Z,30.12
2023-07-16T13:56:45.454Z,30.64
2023-07-16T14:02:07.572Z,30.29
2023-07-16T14:07:29.669Z,32.18
2023-07-16T14:12:51.557Z,32.07
2023-07-16T14:18:13.483Z,31.56
2023-07-16T14:23:35.406Z,33.60
2023-07-16T14:28:57.660Z,29.31
2023-07-16T14:40:10.190Z,28.05
2023-07-16T14:45:32.230Z,27.66
2023-07-16T14:50:54.690Z,27.71
2023-07-16T14:56:16.814Z,28.32
2023-07-16T15:01:40.048Z,28.02
2023-07-16T15:07:02.619Z,27.92
2023-07-16T15:12:24.563Z,27.64
2023-07-16T15:17:46.594Z,27.41
2023-07-16T15:23:08.714Z,27.45
2023-07-16T15:28:35.212Z,28.08
2023-07-16T15:33:57.916Z,28.53
2023-07-16T15:39:19.920Z,28.32
2023-07-16T15:44:42.876Z,28.30
2023-07-16T15:50:05.039Z,28.49
2023-07-16T15:55:27.177Z,28.37
2023-07-16T16:00:49.118Z,28.59
2023-07-16T16:06:11.140Z,28.74
2023-07-16T16:11:33.027Z,30.49
2023-07-16T16:17:06.069Z,32.09
2023-07-16T16:22:29.158Z,32.03
2023-07-16T16:27:51.071Z,31.38
2023-07-16T16:33:13.106Z,30.29
2023-07-16T16:38:34.999Z,28.71
2023-07-16T16:43:56.836Z,28.53
2023-07-16T16:49:18.910Z,28.11
2023-07-16T16:54:40.705Z,27.89
2023-07-16T17:00:05.394Z,27.58
2023-07-16T17:05:27.818Z,27.46
2023-07-16T17:10:50.239Z,27.42
2023-07-16T17:16:12.101Z,27.50
2023-07-16T17:21:34.171Z,27.38
2023-07-16T17:26:56.095Z,27.25
2023-07-16T17:32:18.013Z,27.03
2023-07-16T17:37:39.970Z,26.76
2023-07-16T17:43:01.853Z,26.46
2023-07-16T17:48:24.597Z,26.33
2023-07-16T17:53:46.538Z,26.32
2023-07-16T17:59:11.449Z,26.15
2023-07-16T18:04:33.520Z,25.94
2023-07-16T18:09:55.616Z,25.75
2023-07-16T18:15:17.637Z,25.64
2023-07-16T18:20:39.449Z,25.43
2023-07-16T18:26:01.674Z,25.19
2023-07-16T18:31:24.365Z,25.13
2023-07-16T18:36:46.295Z,25.02
2023-07-16T18:42:08.406Z,24.91
2023-07-16T18:47:30.565Z,24.79
2023-07-16T18:52:52.570Z,24.62
2023-07-16T18:58:14.816Z,24.56
2023-07-16T19:03:36.887Z,24.52
2023-07-16T19:08:58.742Z,24.37
2023-07-16T19:14:20.618Z,24.21
2023-07-16T19:19:43.830Z,24.11
2023-07-16T19:25:06.378Z,24.09
2023-07-16T19:30:28.446Z,24.04
2023-07-16T19:36:05.045Z,23.96
2023-07-16T19:41:40.730Z,23.94
2023-07-16T19:47:02.769Z,23.91
2023-07-16T19:52:24.724Z,23.94
2023-07-16T19:57:46.606Z,23.91
2023-07-16T20:03:08.619Z,23.80
2023-07-16T20:08:30.468Z,23.67
2023-07-16T20:13:52.947Z,23.67
2023-07-16T20:19:15.213Z,23.68
2023-07-16T20:24:36.984Z,23.61
2023-07-16T20:29:59.136Z,23.54
2023-07-16T20:35:21.311Z,23.44
2023-07-16T20:40:43.258Z,23.38
2023-07-16T20:46:05.506Z,23.39
2023-07-16T20:51:27.443Z,23.39
2023-07-16T20:56:49.265Z,23.38
2023-07-16T21:02:11.109Z,23.31
2023-07-16T21:07:36.012Z,23.26
2023-07-16T21:13:03.241Z,23.17
2023-07-16T21:18:25.221Z,23.17
2023-07-16T21:23:47.095Z,22.86
2023-07-16T21:29:09.351Z,22.64
2023-07-16T21:34:31.224Z,22.51
2023-07-16T21:39:53.072Z,22.25
2023-07-16T21:45:15.040Z,22.14
2023-07-16T21:50:37.001Z,21.98
2023-07-16T21:55:58.841Z,21.84
2023-07-16T22:01:20.909Z,21.81
2023-07-16T22:06:42.846Z,21.73
2023-07-16T22:12:04.973Z,21.64
2023-07-16T22:17:27.275Z,21.61
2023-07-16T22:22:49.246Z,21.47
2023-07-16T22:28:11.071Z,21.27
2023-07-16T22:33:32.956Z,21.12
2023-07-16T22:38:54.824Z,20.95
2023-07-16T22:44:16.682Z,20.94
2023-07-16T22:49:38.474Z,20.68
2023-07-16T22:55:00.287Z,20.58
2023-07-16T23:00:23.289Z,20.60
2023-07-16T23:05:45.167Z,20.54
2023-07-16T23:11:07.066Z,20.45
2023-07-16T23:16:29.354Z,20.42
2023-07-16T23:21:51.160Z,20.32
2023-07-16T23:27:13.995Z,20.36
2023-07-16T23:32:35.985Z,20.24
2023-07-16T23:37:57.962Z,20.28
2023-07-16T23:43:19.915Z,20.22
2023-07-16T23:48:41.776Z,20.12
2023-07-16T23:54:20.752Z,20.04
2023-07-16T23:59:43.664Z,19.99
